Time;durP1;ratioP1;P1;durP2;ratioP2;P2;SDS_P1;SDS_P2;PMS_P1;PMS_P2;Temp;Humidity;BMP_temperature;BMP_pressure;BME280_temperature;BME280_humidity;BME280_pressure;Samples;Min_cycle;Max_cycle;Signal;HPM_P1;HPM_P2
2022/02/08 00:00:49;;;;;;;;;;;;;;;;;;2074988;28;20008;-77
2022/02/08 00:02:15;;;;;;;;;;;;;;;;;;2065428;28;19926;-79
2022/02/08 00:03:23;;;;;;;;;;;;;;;;;;2078434;28;19930;-79
2022/02/08 00:04:29;;;;;;;;;;;;;;;;;;2076393;28;20000;-81
2022/02/08 00:05:30;;;;;;;;;;;;;;;;;;2077137;28;19926;-78
2022/02/08 00:06:44;;;;;;;;;;;;;;;;;;2085132;28;19939;-78
2022/02/08 00:07:53;;;;;;;;;;;;;;;;;;2093088;28;19929;-80
2022/02/08 00:08:56;;;;;;;;;;;;;;;;;;2085129;28;19926;-78
2022/02/08 00:10:00;;;;;;;;;;;;;;;;;;2085067;28;19925;-78
2022/02/08 00:11:04;;;;;;;;;;;;;;;;;;2085665;28;20713;-78
2022/02/08 00:12:08;;;;;;;;;;;;;;;;;;2093257;28;19925;-80
2022/02/08 00:13:13;;;;;;;;;;;;;;;;;;2084865;28;19959;-78
2022/02/08 00:14:37;;;;;;;;;;;;;;;;;;2085183;28;19930;-78
2022/02/08 00:15:40;;;;;;;;;;;;;;;;;;2093216;28;19929;-78
2022/02/08 00:16:43;;;;;;;;;;;;;;;;;;2085104;28;20006;-78
2022/02/08 00:17:45;;;;;;;;;;;;;;;;;;2077140;28;19937;-78
2022/02/08 00:18:49;;;;;;;;;;;;;;;;;;2084749;28;19929;-78
2022/02/08 00:19:51;;;;;;;;;;;;;;;;;;2092764;28;19972;-78
2022/02/08 00:21:02;;;;;;;;;;;;;;;;;;2091655;28;19925;-77
2022/02/08 00:22:04;;;;;;;;;;;;;;;;;;2093149;28;20792;-77
2022/02/08 00:23:06;;;;;;;;;;;;;;;;;;2093009;28;19980;-78
2022/02/08 00:24:08;;;;;;;;;;;;;;;;;;2093102;28;19929;-79
2022/02/08 00:25:10;;;;;;;;;;;;;;;;;;2092561;28;19925;-78
2022/02/08 00:26:12;;;;;;;;;;;;;;;;;;2093101;28;20059;-77
2022/02/08 00:27:15;;;;;;;;;;;;;;;;;;2084853;28;20705;-77
2022/02/08 00:28:17;;;;;;;;;;;;;;;;;;2076993;28;20040;-78
2022/02/08 00:29:21;;;;;;;;;;;;;;;;;;2077104;28;19930;-77
2022/02/08 00:30:23;;;;;;;;;;;;;;;;;;2084802;28;20025;-77
2022/02/08 00:31:24;;;;;;;;;;;;;;;;;;2092904;28;19940;-78
2022/02/08 00:32:26;;;;;;;;;;;;;;;;;;2085004;28;20003;-79
2022/02/08 00:33:29;;;;;;;;;;;;;;;;;;2084934;28;19929;-78
2022/02/08 00:34:32;;;;;;;;;;;;;;;;;;2085427;28;20053;-79
2022/02/08 00:35:34;;;;;;;;;;;;;;;;;;2093403;28;19935;-77
2022/02/08 00:36:37;;;;;;;;;;;;;;;;;;2092563;28;20006;-77
2022/02/08 00:37:42;;;;;;;;;;;;;;;;;;2093090;28;19937;-76
2022/02/08 00:38:49;;;;;;;;;;;;;;;;;;2084876;28;20000;-78
2022/02/08 00:39:53;;;;;;;;;;;;;;;;;;2077892;28;19933;-77
2022/02/08 00:40:59;;;;;;;;;;;;;;;;;;2077174;28;19936;-78
2022/02/08 00:42:09;;;;;;;;;;;;;;;;;;2084744;28;20118;-77
2022/02/08 00:43:13;;;;;;;;;;;;;;;;;;2085232;28;19933;-78
2022/02/08 00:44:23;;;;;;;;;;;;;;;;;;2093069;28;19925;-78
2022/02/08 00:45:51;;;;;;;;;;;;;;;;;;2085027;28;19926;-78
2022/02/08 00:47:12;;;;;;;;;;;;;;;;;;2085282;28;19988;-79
2022/02/08 00:48:19;;;;;;;;;;;;;;;;;;2092887;28;19929;-77
2022/02/08 00:49:30;;;;;;;;;;;;;;;;;;2085081;28;20729;-78
2022/02/08 00:50:33;;;;;;;;;;;;;;;;;;2078423;28;19932;-79
2022/02/08 00:51:44;;;;;;;;;;;;;;;;;;2077544;28;19926;-79
2022/02/08 00:52:46;;;;;;;;;;;;;;;;;;2085084;28;20059;-78
2022/02/08 00:53:48;;;;;;;;;;;;;;;;;;2093192;28;20687;-78
2022/02/08 00:54:50;;;;;;;;;;;;;;;;;;2093276;28;19929;-79
2022/02/08 00:55:51;;;;;;;;;;;;;;;;;;2085780;28;20146;-79
2022/02/08 00:56:59;;;;;;;;;;;;;;;;;;2085690;28;20055;-77
2022/02/08 00:58:01;;;;;;;;;;;;;;;;;;2085966;28;19937;-81
2022/02/08 00:59:04;;;;;;;;;;;;;;;;;;2093492;28;20722;-79
2022/02/08 01:00:05;;;;;;;;;;;;;;;;;;2092766;28;19932;-76
2022/02/08 01:01:07;;;;;;;;;;;;;;;;;;2093353;28;19933;-78
2022/02/08 01:02:09;;;;;;;;;;;;;;;;;;2085043;28;20824;-76
2022/02/08 01:03:12;;;;;;;;;;;;;;;;;;2077300;28;19936;-78
2022/02/08 01:04:13;;;;;;;;;;;;;;;;;;2085202;28;19929;-79
2022/02/08 01:05:16;;;;;;;;;;;;;;;;;;2092640;28;20709;-79
2022/02/08 01:06:20;;;;;;;;;;;;;;;;;;2084559;28;20017;-78
2022/02/08 01:07:23;;;;;;;;;;;;;;;;;;2077070;28;19930;-78
2022/02/08 01:08:30;;;;;;;;;;;;;;;;;;2076936;28;20632;-78
2022/02/08 01:09:44;;;;;;;;;;;;;;;;;;2084718;28;19932;-78
2022/02/08 01:10:46;;;;;;;;;;;;;;;;;;2092738;28;20003;-77
2022/02/08 01:11:53;;;;;;;;;;;;;;;;;;2084728;28;19930;-78
2022/02/08 01:12:55;;;;;;;;;;;;;;;;;;2077353;28;19937;-77
2022/02/08 01:13:58;;;;;;;;;;;;;;;;;;2076856;28;19926;-78
2022/02/08 01:14:59;;;;;;;;;;;;;;;;;;2084767;28;19929;-79
2022/02/08 01:16:01;;;;;;;;;;;;;;;;;;2085190;28;19999;-78
2022/02/08 01:17:03;;;;;;;;;;;;;;;;;;2091742;28;19925;-78
2022/02/08 01:18:05;;;;;;;;;;;;;;;;;;2092205;28;19929;-77
2022/02/08 01:19:08;;;;;;;;;;;;;;;;;;2085259;28;20877;-78
2022/02/08 01:20:28;;;;;;;;;;;;;;;;;;2092816;28;20721;-78
2022/02/08 01:21:33;;;;;;;;;;;;;;;;;;2088246;28;20863;-77
2022/02/08 01:22:38;;;;;;;;;;;;;;;;;;2085068;28;20110;-79
2022/02/08 01:23:41;;;;;;;;;;;;;;;;;;2092702;28;20068;-79
2022/02/08 01:24:45;;;;;;;;;;;;;;;;;;2084404;28;19932;-79
2022/02/08 01:26:10;;;;;;;;;;;;;;;;;;2084410;28;20768;-78
2022/02/08 01:27:12;;;;;;;;;;;;;;;;;;2085274;28;19929;-78
2022/02/08 01:29:35;;;;;;;;;;;;;;;;;;2092254;28;19925;-78
2022/02/08 01:31:48;;;;;;;;;;;;;;;;;;2085470;28;20035;-78
2022/02/08 01:33:17;;;;;;;;;;;;;;;;;;2092820;28;20055;-77
2022/02/08 01:35:46;;;;;;;;;;;;;;;;;;2084963;28;19980;-78
2022/02/08 01:37:04;;;;;;;;;;;;;;;;;;2085546;28;19936;-78
2022/02/08 01:38:28;;;;;;;;;;;;;;;;;;2092806;28;19925;-78
2022/02/08 01:39:59;;;;;;;;;;;;;;;;;;2089281;28;19952;-79
2022/02/08 01:42:24;;;;;;;;;;;;;;;;;;2091612;28;19925;-79
2022/02/08 01:45:14;;;;;;;;;;;;;;;;;;2091999;28;19929;-78
2022/02/08 01:47:15;;;;;;;;;;;;;;;;;;2085191;28;19926;-80
2022/02/08 01:49:55;;;;;;;;;;;;;;;;;;2085032;28;20043;-77
2022/02/08 01:50:59;;;;;;;;;;;;;;;;;;2092712;28;20814;-78
2022/02/08 01:52:04;;;;;;;;;;;;;;;;;;2091900;28;19999;-80
2022/02/08 01:53:08;;;;;;;;;;;;;;;;;;2092643;28;20633;-77
2022/02/08 01:54:14;;;;;;;;;;;;;;;;;;2084762;28;20072;-78
2022/02/08 01:55:16;;;;;;;;;;;;;;;;;;2076988;28;20028;-78
2022/02/08 01:56:19;;;;;;;;;;;;;;;;;;2077548;28;19929;-79
2022/02/08 01:57:21;;;;;;;;;;;;;;;;;;2076637;28;19973;-79
2022/02/08 01:58:23;;;;;;;;;;;;;;;;;;2076838;28;19980;-79
2022/02/08 01:59:27;;;;;;;;;;;;;;;;;;2076837;28;20626;-77
2022/02/08 02:00:29;;;;;;;;;;;;;;;;;;2076861;28;19926;-78
2022/02/08 02:01:34;;;;;;;;;;;;;;;;;;2077711;28;19968;-80
2022/02/08 02:02:36;;;;;;;;;;;;;;;;;;2084591;28;20000;-78
2022/02/08 02:03:40;;;;;;;;;;;;;;;;;;2085381;28;19930;-78
2022/02/08 02:04:47;;;;;;;;;;;;;;;;;;2085291;28;19940;-79
2022/02/08 02:05:49;;;;;;;;;;;;;;;;;;2092558;28;20689;-79
2022/02/08 02:06:51;;;;;;;;;;;;;;;;;;2084829;28;20020;-79
2022/02/08 02:07:53;;;;;;;;;;;;;;;;;;2077182;28;20051;-78
2022/02/08 02:08:55;;;;;;;;;;;;;;;;;;2084760;28;19933;-78
2022/02/08 02:09:58;;;;;;;;;;;;;;;;;;2093164;28;19929;-78
2022/02/08 02:11:01;;;;;;;;;;;;;;;;;;2092593;28;20011;-78
2022/02/08 02:12:04;;;;;;;;;;;;;;;;;;2093653;28;19999;-80
2022/02/08 02:13:10;;;;;;;;;;;;;;;;;;2085180;28;19925;-79
2022/02/08 02:14:13;;;;;;;;;;;;;;;;;;2085002;28;20047;-78
2022/02/08 02:15:15;;;;;;;;;;;;;;;;;;2093419;28;19936;-78
2022/02/08 02:16:25;;;;;;;;;;;;;;;;;;2085452;28;19937;-78
2022/02/08 02:17:29;;;;;;;;;;;;;;;;;;2078967;28;20087;-79
2022/02/08 02:18:41;;;;;;;;;;;;;;;;;;2078752;28;19932;-77
2022/02/08 02:19:47;;;;;;;;;;;;;;;;;;2078500;28;20642;-78
2022/02/08 02:20:51;;;;;;;;;;;;;;;;;;2077397;28;19930;-78
2022/02/08 02:21:54;;;;;;;;;;;;;;;;;;2077133;28;20616;-81
2022/02/08 02:23:02;;;;;;;;;;;;;;;;;;2084991;28;19988;-78
2022/02/08 02:24:04;;;;;;;;;;;;;;;;;;2093045;28;19933;-79
2022/02/08 02:25:06;;;;;;;;;;;;;;;;;;2092088;28;20139;-78
2022/02/08 02:26:13;;;;;;;;;;;;;;;;;;2084854;28;20694;-81
2022/02/08 02:27:17;;;;;;;;;;;;;;;;;;2092683;28;20084;-79
2022/02/08 02:28:21;;;;;;;;;;;;;;;;;;2091829;28;19941;-81
2022/02/08 02:29:23;;;;;;;;;;;;;;;;;;2092530;28;19936;-78
2022/02/08 02:30:31;;;;;;;;;;;;;;;;;;2091969;28;19929;-79
2022/02/08 02:31:36;;;;;;;;;;;;;;;;;;2084714;28;19929;-79
2022/02/08 02:32:47;;;;;;;;;;;;;;;;;;2092571;28;19932;-79
2022/02/08 02:33:55;;;;;;;;;;;;;;;;;;2084341;28;20837;-79
2022/02/08 02:35:06;;;;;;;;;;;;;;;;;;2084518;28;19934;-79
2022/02/08 02:36:14;;;;;;;;;;;;;;;;;;2084132;28;19933;-79
2022/02/08 02:37:25;;;;;;;;;;;;;;;;;;2092456;28;20130;-78
2022/02/08 02:38:30;;;;;;;;;;;;;;;;;;2090944;28;19929;-79
2022/02/08 02:39:36;;;;;;;;;;;;;;;;;;2092902;28;19932;-80
2022/02/08 02:40:45;;;;;;;;;;;;;;;;;;2084396;28;19937;-79
2022/02/08 02:41:47;;;;;;;;;;;;;;;;;;2078116;28;19930;-79
2022/02/08 02:42:50;;;;;;;;;;;;;;;;;;2084480;28;20707;-79
2022/02/08 02:43:53;;;;;;;;;;;;;;;;;;2085140;28;19999;-79
2022/02/08 02:44:56;;;;;;;;;;;;;;;;;;2092766;28;20683;-78
2022/02/08 02:46:02;;;;;;;;;;;;;;;;;;2084484;28;20185;-80
2022/02/08 02:47:07;;;;;;;;;;;;;;;;;;2077589;28;20617;-79
2022/02/08 02:48:09;;;;;;;;;;;;;;;;;;2084626;28;19929;-79
2022/02/08 02:49:14;;;;;;;;;;;;;;;;;;2092958;28;19962;-80
2022/02/08 02:50:18;;;;;;;;;;;;;;;;;;2084724;28;19964;-79
2022/02/08 02:51:23;;;;;;;;;;;;;;;;;;2084819;28;19929;-79
2022/02/08 02:52:30;;;;;;;;;;;;;;;;;;2093150;28;20213;-79
2022/02/08 02:53:36;;;;;;;;;;;;;;;;;;2091449;28;20790;-78
2022/02/08 02:54:41;;;;;;;;;;;;;;;;;;2085243;28;20080;-78
2022/02/08 02:55:44;;;;;;;;;;;;;;;;;;2093087;28;19991;-80
2022/02/08 02:56:46;;;;;;;;;;;;;;;;;;2092991;28;19959;-78
2022/02/08 02:57:54;;;;;;;;;;;;;;;;;;2093189;28;19967;-77
2022/02/08 02:59:03;;;;;;;;;;;;;;;;;;2092018;28;19929;-77
2022/02/08 03:00:12;;;;;;;;;;;;;;;;;;2093213;28;19933;-76
2022/02/08 03:01:29;;;;;;;;;;;;;;;;;;2092228;28;19936;-77
2022/02/08 03:18:41;;;;;;;;;;;;;;;;;;2083980;28;19930;-79
2022/02/08 03:19:47;;;;;;;;;;;;;;;;;;2084374;28;19933;-78
2022/02/08 03:20:56;;;;;;;;;;;;;;;;;;2092040;28;20008;-79
2022/02/08 03:22:01;;;;;;;;;;;;;;;;;;2083858;28;19926;-79
2022/02/08 03:23:05;;;;;;;;;;;;;;;;;;2083729;28;20748;-79
2022/02/08 03:24:08;;;;;;;;;;;;;;;;;;2092012;28;19937;-80
2022/02/08 03:25:16;;;;;;;;;;;;;;;;;;2090832;28;19929;-79
2022/02/08 03:26:18;;;;;;;;;;;;;;;;;;2092042;28;19936;-79
2022/02/08 03:27:21;;;;;;;;;;;;;;;;;;2091515;28;19936;-78
2022/02/08 03:28:26;;;;;;;;;;;;;;;;;;2084574;28;19925;-79
2022/02/08 03:29:31;;;;;;;;;;;;;;;;;;2091646;28;20855;-80
2022/02/08 03:30:36;;;;;;;;;;;;;;;;;;2090742;28;19929;-79
2022/02/08 03:31:41;;;;;;;;;;;;;;;;;;2084363;28;20583;-77
2022/02/08 03:32:48;;;;;;;;;;;;;;;;;;2091924;28;19983;-77
2022/02/08 03:33:49;;;;;;;;;;;;;;;;;;2091254;28;19926;-78
2022/02/08 03:34:53;;;;;;;;;;;;;;;;;;2091897;28;19929;-79
2022/02/08 03:35:56;;;;;;;;;;;;;;;;;;2091816;28;19929;-79
2022/02/08 03:37:00;;;;;;;;;;;;;;;;;;2084490;28;19930;-78
2022/02/08 03:38:07;;;;;;;;;;;;;;;;;;2091887;28;20026;-78
2022/02/08 03:39:19;;;;;;;;;;;;;;;;;;2083869;28;19963;-78
2022/02/08 03:40:45;;;;;;;;;;;;;;;;;;2077961;28;19937;-77
2022/02/08 03:41:54;;;;;;;;;;;;;;;;;;2085568;28;19940;-79
2022/02/08 03:43:00;;;;;;;;;;;;;;;;;;2085890;28;19984;-78
2022/02/08 03:44:13;;;;;;;;;;;;;;;;;;2093449;28;20050;-79
2022/02/08 03:45:16;;;;;;;;;;;;;;;;;;2091915;28;20114;-78
2022/02/08 03:46:21;;;;;;;;;;;;;;;;;;2085584;28;19984;-78
2022/02/08 03:47:25;;;;;;;;;;;;;;;;;;2093756;28;19967;-78
2022/02/08 03:48:31;;;;;;;;;;;;;;;;;;2093165;28;19929;-79
2022/02/08 03:49:33;;;;;;;;;;;;;;;;;;2093621;28;19984;-79
2022/02/08 03:50:37;;;;;;;;;;;;;;;;;;2085376;28;19999;-80
2022/02/08 03:51:51;;;;;;;;;;;;;;;;;;2085920;28;19948;-80
2022/02/08 03:52:53;;;;;;;;;;;;;;;;;;2093657;28;19929;-79
2022/02/08 03:53:56;;;;;;;;;;;;;;;;;;2093217;28;19929;-79
2022/02/08 03:54:58;;;;;;;;;;;;;;;;;;2086035;28;19998;-78
2022/02/08 03:56:01;;;;;;;;;;;;;;;;;;2085585;28;19929;-78
2022/02/08 03:57:06;;;;;;;;;;;;;;;;;;2093280;28;20751;-79
2022/02/08 03:58:09;;;;;;;;;;;;;;;;;;2084796;28;20589;-78
2022/02/08 03:59:12;;;;;;;;;;;;;;;;;;2085469;28;19984;-79
2022/02/08 04:00:15;;;;;;;;;;;;;;;;;;2093497;28;19926;-77
2022/02/08 04:03:31;;;;;;;;;;;;;;;;;;2085423;28;20003;-79
2022/02/08 04:05:50;;;;;;;;;;;;;;;;;;2085847;28;19925;-77
2022/02/08 04:06:56;;;;;;;;;;;;;;;;;;2085604;28;19925;-78
2022/02/08 04:08:02;;;;;;;;;;;;;;;;;;2085670;28;19937;-79
2022/02/08 04:09:06;;;;;;;;;;;;;;;;;;2085365;28;20657;-78
2022/02/08 04:10:18;;;;;;;;;;;;;;;;;;2085796;28;20791;-78
2022/02/08 04:11:24;;;;;;;;;;;;;;;;;;2093440;28;19926;-79
2022/02/08 04:12:38;;;;;;;;;;;;;;;;;;2084945;28;19929;-77
2022/02/08 04:13:52;;;;;;;;;;;;;;;;;;2085594;28;19925;-79
2022/02/08 04:16:36;;;;;;;;;;;;;;;;;;2092882;28;19925;-78
2022/02/08 04:19:31;;;;;;;;;;;;;;;;;;2085650;28;19929;-78
2022/02/08 04:32:36;;;;;;;;;;;;;;;;;;2085734;28;19940;-80
2022/02/08 04:34:21;;;;;;;;;;;;;;;;;;2093413;28;19929;-79
2022/02/08 04:38:44;;;;;;;;;;;;;;;;;;2086669;28;20757;-79
2022/02/08 04:41:40;;;;;;;;;;;;;;;;;;2085830;28;20701;-79
2022/02/08 04:44:40;;;;;;;;;;;;;;;;;;2085860;28;19925;-80
2022/02/08 04:45:56;;;;;;;;;;;;;;;;;;2093638;28;20628;-79
2022/02/08 04:47:18;;;;;;;;;;;;;;;;;;2085462;28;19956;-79
2022/02/08 04:49:26;;;;;;;;;;;;;;;;;;2084979;28;19947;-79
2022/02/08 04:50:31;;;;;;;;;;;;;;;;;;2093720;28;19925;-79
2022/02/08 04:51:50;;;;;;;;;;;;;;;;;;2090571;28;19929;-78
2022/02/08 04:53:13;;;;;;;;;;;;;;;;;;2084373;28;20630;-79
2022/02/08 04:55:54;;;;;;;;;;;;;;;;;;2089964;28;20609;-79
2022/02/08 04:59:31;;;;;;;;;;;;;;;;;;2085844;28;20004;-81
2022/02/08 05:01:25;;;;;;;;;;;;;;;;;;2087210;28;19956;-79
2022/02/08 05:35:57;;;;;;;;;;;;;;;;;;2085213;28;19929;-78
2022/02/08 05:43:10;;;;;;;;;;;;;;;;;;2085065;28;19926;-78
2022/02/08 05:45:27;;;;;;;;;;;;;;;;;;2085352;28;20601;-78
2022/02/08 05:47:41;;;;;;;;;;;;;;;;;;2085423;28;19925;-79
2022/02/08 05:48:49;;;;;;;;;;;;;;;;;;2089168;28;19936;-80
2022/02/08 05:50:37;;;;;;;;;;;;;;;;;;2085048;28;19968;-77
2022/02/08 05:53:03;;;;;;;;;;;;;;;;;;2088420;28;20783;-79
2022/02/08 05:54:05;;;;;;;;;;;;;;;;;;2101886;28;19929;-79
2022/02/08 05:55:07;;;;;;;;;;;;;;;;;;2102450;28;19924;-80
2022/02/08 05:56:14;;;;;;;;;;;;;;;;;;2101608;28;19935;-78
2022/02/08 05:57:18;;;;;;;;;;;;;;;;;;2100878;28;19931;-78
2022/02/08 05:58:29;;;;;;;;;;;;;;;;;;2086662;28;20095;-78
2022/02/08 05:59:30;;;;;;;;;;;;;;;;;;2086424;28;20084;-78
2022/02/08 06:00:32;;;;;;;;;;;;;;;;;;2085140;28;19929;-81
2022/02/08 06:01:52;;;;;;;;;;;;;;;;;;2087456;28;20024;-78
2022/02/08 06:02:56;;;;;;;;;;;;;;;;;;2087297;28;19929;-80
2022/02/08 06:04:00;;;;;;;;;;;;;;;;;;2093383;28;19925;-81
2022/02/08 06:05:02;;;;;;;;;;;;;;;;;;2101135;28;19936;-79
2022/02/08 06:06:04;;;;;;;;;;;;;;;;;;2101794;28;20810;-78
2022/02/08 06:07:07;;;;;;;;;;;;;;;;;;2101663;28;19929;-81
2022/02/08 06:08:08;;;;;;;;;;;;;;;;;;2101495;28;19979;-79
2022/02/08 06:09:11;;;;;;;;;;;;;;;;;;2102307;28;19955;-78
2022/02/08 06:10:14;;;;;;;;;;;;;;;;;;2102471;28;20055;-79
2022/02/08 06:11:17;;;;;;;;;;;;;;;;;;2102504;28;19975;-79
2022/02/08 06:12:23;;;;;;;;;;;;;;;;;;2102108;28;19929;-82
2022/02/08 06:13:25;;;;;;;;;;;;;;;;;;2102173;28;19979;-80
2022/02/08 06:14:29;;;;;;;;;;;;;;;;;;2102340;28;19964;-78
2022/02/08 06:15:34;;;;;;;;;;;;;;;;;;2101897;28;20850;-80
2022/02/08 06:16:36;;;;;;;;;;;;;;;;;;2102104;28;19943;-81
2022/02/08 06:17:38;;;;;;;;;;;;;;;;;;2101846;28;20675;-78
2022/02/08 06:18:42;;;;;;;;;;;;;;;;;;2100886;28;19929;-81
2022/02/08 06:19:44;;;;;;;;;;;;;;;;;;2102895;28;19929;-79
2022/02/08 06:20:55;;;;;;;;;;;;;;;;;;2103166;28;19925;-79
2022/02/08 06:21:58;;;;;;;;;;;;;;;;;;2103250;28;19984;-78
2022/02/08 06:23:00;;;;;;;;;;;;;;;;;;2102730;28;19982;-79
2022/02/08 06:24:03;;;;;;;;;;;;;;;;;;2102865;28;20818;-79
2022/02/08 06:25:07;;;;;;;;;;;;;;;;;;2102765;28;19991;-77
2022/02/08 06:26:11;;;;;;;;;;;;;;;;;;2102196;28;19933;-79
2022/02/08 06:27:14;;;;;;;;;;;;;;;;;;2094183;28;20786;-79
2022/02/08 06:28:17;;;;;;;;;;;;;;;;;;2101691;28;20587;-81
2022/02/08 06:29:23;;;;;;;;;;;;;;;;;;2101088;28;19929;-78
2022/02/08 06:30:26;;;;;;;;;;;;;;;;;;2093417;28;19936;-79
2022/02/08 06:31:32;;;;;;;;;;;;;;;;;;2093684;28;19929;-79
2022/02/08 06:32:36;;;;;;;;;;;;;;;;;;2101372;28;20727;-81
2022/02/08 06:33:44;;;;;;;;;;;;;;;;;;2101561;28;20741;-80
2022/02/08 06:35:19;;;;;;;;;;;;;;;;;;2100083;28;19924;-79
2022/02/08 06:36:42;;;;;;;;;;;;;;;;;;2088365;28;19929;-79
2022/02/08 06:38:08;;;;;;;;;;;;;;;;;;2089669;28;20133;-77
2022/02/08 06:39:35;;;;;;;;;;;;;;;;;;2092874;28;20656;-79
2022/02/08 06:40:57;;;;;;;;;;;;;;;;;;2092466;28;19935;-77
2022/02/08 06:42:18;;;;;;;;;;;;;;;;;;2093124;28;20052;-77
2022/02/08 06:43:39;;;;;;;;;;;;;;;;;;2091355;28;19929;-77
2022/02/08 06:45:04;;;;;;;;;;;;;;;;;;2090839;28;19929;-80
2022/02/08 06:46:25;;;;;;;;;;;;;;;;;;2098073;28;19995;-70
2022/02/08 06:47:51;;;;;;;;;;;;;;;;;;2096537;28;19940;-63
2022/02/08 06:49:10;;;;;;;;;;;;;;;;;;2090063;28;19929;-68
2022/02/08 06:50:31;;;;;;;;;;;;;;;;;;2101989;28;20035;-67
2022/02/08 06:51:53;;;;;;;;;;;;;;;;;;2090079;28;19936;-69
2022/02/08 06:53:11;;;;;;;;;;;;;;;;;;2093011;28;19932;-70
2022/02/08 06:54:23;;;;;;;;;;;;;;;;;;2096865;28;20716;-64
2022/02/08 06:55:30;;;;;;;;;;;;;;;;;;2095211;28;19931;-65
2022/02/08 06:56:38;;;;;;;;;;;;;;;;;;2094456;28;20002;-69
2022/02/08 06:58:03;;;;;;;;;;;;;;;;;;2091992;28;20002;-71
2022/02/08 06:59:08;;;;;;;;;;;;;;;;;;2102268;28;19924;-65
2022/02/08 07:00:17;;;;;;;;;;;;;;;;;;2097729;28;19983;-64
2022/02/08 07:01:27;;;;;;;;;;;;;;;;;;2099828;28;19925;-63
2022/02/08 07:02:30;;;;;;;;;;;;;;;;;;2099874;28;19987;-72
2022/02/08 07:03:33;;;;;;;;;;;;;;;;;;2093631;28;20055;-64
2022/02/08 07:04:37;;;;;;;;;;;;;;;;;;2092728;28;20580;-69
2022/02/08 07:05:41;;;;;;;;;;;;;;;;;;2092091;28;20006;-69
2022/02/08 07:06:45;;;;;;;;;;;;;;;;;;2089600;28;19929;-68
2022/02/08 07:07:50;;;;;;;;;;;;;;;;;;2090198;28;20649;-75
2022/02/08 07:08:58;;;;;;;;;;;;;;;;;;2090758;28;20768;-63
2022/02/08 07:10:04;;;;;;;;;;;;;;;;;;2089721;28;19932;-75
2022/02/08 07:11:15;;;;;;;;;;;;;;;;;;2099269;28;20832;-68
2022/02/08 07:12:19;;;;;;;;;;;;;;;;;;2097194;28;20003;-67
2022/02/08 07:13:24;;;;;;;;;;;;;;;;;;2091017;28;20814;-67
2022/02/08 07:14:31;;;;;;;;;;;;;;;;;;2092465;28;20742;-63
2022/02/08 07:15:35;;;;;;;;;;;;;;;;;;2090806;28;19933;-65
2022/02/08 07:16:38;;;;;;;;;;;;;;;;;;2093527;28;19972;-74
2022/02/08 07:17:42;;;;;;;;;;;;;;;;;;2092730;28;20747;-73
2022/02/08 07:18:45;;;;;;;;;;;;;;;;;;2098572;28;19929;-63
2022/02/08 07:19:48;;;;;;;;;;;;;;;;;;2091722;28;19968;-69
2022/02/08 07:20:49;;;;;;;;;;;;;;;;;;2091147;28;20007;-64
2022/02/08 07:21:53;;;;;;;;;;;;;;;;;;2091935;28;19995;-75
2022/02/08 07:22:54;;;;;;;;;;;;;;;;;;2094775;28;19935;-65
2022/02/08 07:23:56;;;;;;;;;;;;;;;;;;2099332;28;19989;-73
2022/02/08 07:24:59;;;;;;;;;;;;;;;;;;2097571;28;20054;-72
2022/02/08 07:26:08;;;;;;;;;;;;;;;;;;2094507;28;20083;-76
2022/02/08 07:27:12;;;;;;;;;;;;;;;;;;2088790;28;19996;-72
2022/02/08 07:28:16;;;;;;;;;;;;;;;;;;2088500;28;19931;-72
2022/02/08 07:29:17;;;;;;;;;;;;;;;;;;2091889;28;19925;-68
2022/02/08 07:30:21;;;;;;;;;;;;;;;;;;2091001;28;20817;-70
2022/02/08 07:31:34;;;;;;;;;;;;;;;;;;2091599;28;20644;-65
2022/02/08 07:32:39;;;;;;;;;;;;;;;;;;2098730;28;19928;-63
2022/02/08 07:34:14;;;;;;;;;;;;;;;;;;2098112;28;19935;-66
2022/02/08 07:37:44;;;;;;;;;;;;;;;;;;2090379;28;19932;-64
2022/02/08 07:38:49;;;;;;;;;;;;;;;;;;2090190;28;19929;-66
2022/02/08 07:39:53;;;;;;;;;;;;;;;;;;2090987;28;20855;-65
2022/02/08 07:41:57;;;;;;;;;;;;;;;;;;2091337;28;20649;-66
2022/02/08 07:42:58;;;;;;;;;;;;;;;;;;2091010;28;19975;-65
2022/02/08 07:44:02;;;;;;;;;;;;;;;;;;2091427;28;19932;-69
2022/02/08 07:45:04;;;;;;;;;;;;;;;;;;2091018;28;19926;-67
2022/02/08 07:46:08;;;;;;;;;;;;;;;;;;2090392;28;19925;-67
2022/02/08 07:47:11;;;;;;;;;;;;;;;;;;2090876;28;20681;-77
2022/02/08 07:48:14;;;;;;;;;;;;;;;;;;2098486;28;19931;-65
2022/02/08 07:49:16;;;;;;;;;;;;;;;;;;2098397;28;19941;-64
2022/02/08 07:50:19;;;;;;;;;;;;;;;;;;2092254;28;19968;-73
2022/02/08 07:51:24;;;;;;;;;;;;;;;;;;2099952;28;19929;-66
2022/02/08 07:52:26;;;;;;;;;;;;;;;;;;2098549;28;19931;-63
2022/02/08 07:53:29;;;;;;;;;;;;;;;;;;2089985;28;20294;-65
2022/02/08 07:54:32;;;;;;;;;;;;;;;;;;2091720;28;20632;-72
2022/02/08 07:55:36;;;;;;;;;;;;;;;;;;2099561;28;19928;-66
2022/02/08 07:56:41;;;;;;;;;;;;;;;;;;2094626;28;19925;-69
2022/02/08 07:57:44;;;;;;;;;;;;;;;;;;2091052;28;19964;-65
2022/02/08 07:58:47;;;;;;;;;;;;;;;;;;2090989;28;20056;-66
2022/02/08 07:59:49;;;;;;;;;;;;;;;;;;2099229;28;19932;-64
2022/02/08 08:00:51;;;;;;;;;;;;;;;;;;2091759;28;19929;-67
2022/02/08 08:01:54;;;;;;;;;;;;;;;;;;2098984;28;19972;-62
2022/02/08 08:02:56;;;;;;;;;;;;;;;;;;2099257;28;20625;-62
2022/02/08 08:03:59;;;;;;;;;;;;;;;;;;2098126;28;19929;-68
2022/02/08 08:05:02;;;;;;;;;;;;;;;;;;2090282;28;20878;-70
2022/02/08 08:06:04;;;;;;;;;;;;;;;;;;2098205;28;20783;-70
2022/02/08 08:07:07;;;;;;;;;;;;;;;;;;2098428;28;20026;-67
2022/02/08 08:08:11;;;;;;;;;;;;;;;;;;2091054;28;19976;-62
2022/02/08 08:09:14;;;;;;;;;;;;;;;;;;2094786;28;19925;-63
2022/02/08 08:10:19;;;;;;;;;;;;;;;;;;2098305;28;20680;-61
2022/02/08 08:11:24;;;;;;;;;;;;;;;;;;2096676;28;20815;-69
2022/02/08 08:12:26;;;;;;;;;;;;;;;;;;2097241;28;20056;-70
2022/02/08 08:13:28;;;;;;;;;;;;;;;;;;2097962;28;20712;-63
2022/02/08 08:14:32;;;;;;;;;;;;;;;;;;2098779;28;20079;-63
2022/02/08 08:15:43;;;;;;;;;;;;;;;;;;2097595;28;20834;-78
2022/02/08 08:17:02;;;;;;;;;;;;;;;;;;2090702;28;19925;-66
2022/02/08 08:20:20;;;;;;;;;;;;;;;;;;2091385;28;20027;-61
2022/02/08 08:21:22;;;;;;;;;;;;;;;;;;2090701;28;19929;-63
2022/02/08 08:22:24;;;;;;;;;;;;;;;;;;2098915;28;19928;-66
2022/02/08 08:23:25;;;;;;;;;;;;;;;;;;2090973;28;19989;-63
2022/02/08 08:24:28;;;;;;;;;;;;;;;;;;2091753;28;19932;-67
2022/02/08 08:25:31;;;;;;;;;;;;;;;;;;2090612;28;21189;-68
2022/02/08 08:26:34;;;;;;;;;;;;;;;;;;2091749;28;19929;-64
2022/02/08 08:27:36;;;;;;;;;;;;;;;;;;2092990;28;19979;-63
2022/02/08 08:28:39;;;;;;;;;;;;;;;;;;2092303;28;19932;-71
2022/02/08 08:29:42;;;;;;;;;;;;;;;;;;2092785;28;19929;-70
2022/02/08 08:30:44;;;;;;;;;;;;;;;;;;2092019;28;20636;-67
2022/02/08 08:31:46;;;;;;;;;;;;;;;;;;2092634;28;19972;-66
2022/02/08 08:32:49;;;;;;;;;;;;;;;;;;2092684;28;19929;-68
2022/02/08 08:33:52;;;;;;;;;;;;;;;;;;2092229;28;19961;-64
2022/02/08 08:34:55;;;;;;;;;;;;;;;;;;2100887;28;19929;-62
2022/02/08 08:35:58;;;;;;;;;;;;;;;;;;2099283;28;20771;-67
2022/02/08 08:37:00;;;;;;;;;;;;;;;;;;2092853;28;20031;-64
2022/02/08 08:38:06;;;;;;;;;;;;;;;;;;2093011;28;19991;-68
2022/02/08 08:39:09;;;;;;;;;;;;;;;;;;2092106;28;19979;-65
2022/02/08 08:41:49;;;;;;;;;;;;;;;;;;2108201;28;19928;-65
2022/02/08 08:51:58;;;;;;;;;;;;;;;;;;2092614;28;19983;-67
2022/02/08 08:53:00;;;;;;;;;;;;;;;;;;2092942;28;20789;-64
2022/02/08 08:54:05;;;;;;;;;;;;;;;;;;2100812;28;19990;-62
2022/02/08 08:55:07;;;;;;;;;;;;;;;;;;2099431;28;20878;-66
2022/02/08 08:56:09;;;;;;;;;;;;;;;;;;2092475;28;20610;-65
2022/02/08 08:57:12;;;;;;;;;;;;;;;;;;2092899;28;20052;-68
2022/02/08 08:58:15;;;;;;;;;;;;;;;;;;2094356;28;19955;-64
2022/02/08 08:59:17;;;;;;;;;;;;;;;;;;2095158;28;19996;-63
2022/02/08 09:00:19;;;;;;;;;;;;;;;;;;2095421;28;19929;-65
2022/02/08 09:01:22;;;;;;;;;;;;;;;;;;2099087;28;19932;-63
2022/02/08 09:02:25;;;;;;;;;;;;;;;;;;2098565;28;19967;-66
2022/02/08 09:03:27;;;;;;;;;;;;;;;;;;2097467;28;19925;-63
2022/02/08 09:04:34;;;;;;;;;;;;;;;;;;2102304;28;19925;-59
2022/02/08 09:05:36;;;;;;;;;;;;;;;;;;2099408;28;20807;-73
2022/02/08 09:06:38;;;;;;;;;;;;;;;;;;2093552;28;19929;-66
2022/02/08 09:07:43;;;;;;;;;;;;;;;;;;2093603;28;19929;-76
2022/02/08 09:08:45;;;;;;;;;;;;;;;;;;2094720;28;19929;-75
2022/02/08 09:09:55;;;;;;;;;;;;;;;;;;2092369;28;19986;-63
2022/02/08 09:11:06;;;;;;;;;;;;;;;;;;2092861;28;19929;-76
2022/02/08 09:13:18;;;;;;;;;;;;;;;;;;2093954;28;20671;-60
2022/02/08 09:14:27;;;;;;;;;;;;;;;;;;2094543;28;19940;-64
2022/02/08 09:15:49;;;;;;;;;;;;;;;;;;2093070;28;20039;-76
2022/02/08 09:21:31;;;;;;;;;;;;;;;;;;2093830;28;19936;-65
2022/02/08 09:24:15;;;;;;;;;;;;;;;;;;2092594;28;19929;-73
2022/02/08 09:29:07;;;;;;;;;;;;;;;;;;2093448;28;19928;-72
2022/02/08 09:30:29;;;;;;;;;;;;;;;;;;2090615;28;20621;-70
2022/02/08 09:31:33;;;;;;;;;;;;;;;;;;2092525;28;20003;-72
2022/02/08 09:33:41;;;;;;;;;;;;;;;;;;2092434;28;20043;-74
2022/02/08 09:34:44;;;;;;;;;;;;;;;;;;2092224;28;19929;-61
2022/02/08 09:35:49;;;;;;;;;;;;;;;;;;2092584;28;20646;-70
2022/02/08 09:36:52;;;;;;;;;;;;;;;;;;2097211;28;20782;-65
2022/02/08 09:37:58;;;;;;;;;;;;;;;;;;2091435;28;19929;-72
2022/02/08 09:39:02;;;;;;;;;;;;;;;;;;2092512;28;19929;-72
2022/02/08 09:40:06;;;;;;;;;;;;;;;;;;2097735;28;19933;-68
2022/02/08 09:41:07;;;;;;;;;;;;;;;;;;2092326;28;20751;-74
2022/02/08 09:42:09;;;;;;;;;;;;;;;;;;2099924;28;19935;-74